createdAt,value
2018-04-17T00:01:21.464Z,75.40
2018-04-17T00:03:49.842Z,75.00
2018-04-17T00:06:18.252Z,75.00
2018-04-17T00:08:47.462Z,75.30
2018-04-17T00:11:16.568Z,75.00
2018-04-17T00:13:44.924Z,75.00
2018-04-17T00:16:13.324Z,75.20
2018-04-17T00:18:41.657Z,76.10
2018-04-17T00:21:10.029Z,76.50
2018-04-17T00:26:14.617Z,76.50
2018-04-17T00:28:43.001Z,76.40
2018-04-17T00:33:46.639Z,77.20
2018-04-17T00:36:14.979Z,77.20
2018-04-17T00:38:44.124Z,76.90
2018-04-17T00:41:12.464Z,76.90
2018-04-17T00:43:41.581Z,77.80
2018-04-17T00:46:09.942Z,77.70
2018-04-17T00:48:39.062Z,78.50
2018-04-17T00:51:07.427Z,78.50
2018-04-17T00:53:47.659Z,78.10
2018-04-17T00:56:16.834Z,78.00
2018-04-17T00:58:45.230Z,78.00
2018-04-17T01:01:14.338Z,77.80
2018-04-17T01:03:43.468Z,77.60
2018-04-17T01:06:11.747Z,77.50
2018-04-17T01:08:40.926Z,77.40
2018-04-17T01:11:10.017Z,77.20
2018-04-17T01:13:39.086Z,77.40
2018-04-17T01:16:07.390Z,77.40
2018-04-17T01:18:35.712Z,77.20
2018-04-17T01:21:03.996Z,78.20
2018-04-17T01:23:32.321Z,77.40
2018-04-17T01:26:01.404Z,77.80
2018-04-17T01:28:29.708Z,77.80
2018-04-17T01:30:57.989Z,77.50
2018-04-17T01:33:26.297Z,77.20
2018-04-17T01:35:54.591Z,77.20
2018-04-17T01:38:22.884Z,77.50
2018-04-17T01:40:52.039Z,78.80
2018-04-17T01:43:20.369Z,78.70
2018-04-17T01:45:48.686Z,79.10
2018-04-17T01:48:16.967Z,80.00
2018-04-17T01:50:45.278Z,80.10
2018-04-17T01:53:13.610Z,80.00
2018-04-17T01:55:41.917Z,80.00
2018-04-17T01:58:10.202Z,79.80
2018-04-17T02:00:38.541Z,79.40
2018-04-17T02:03:06.822Z,79.30
2018-04-17T02:05:35.145Z,79.00
2018-04-17T02:08:03.507Z,78.90
2018-04-17T02:10:31.809Z,79.20
2018-04-17T02:13:00.085Z,79.40
2018-04-17T02:15:28.405Z,79.70
2018-04-17T02:17:56.727Z,79.60
2018-04-17T02:20:25.046Z,79.80
2018-04-17T02:22:53.348Z,79.80
2018-04-17T02:25:21.710Z,79.20
2018-04-17T02:27:50.058Z,79.30
2018-04-17T02:30:18.419Z,79.50
2018-04-17T02:32:46.809Z,79.70
2018-04-17T02:35:15.958Z,79.80
2018-04-17T02:37:44.292Z,79.60
2018-04-17T02:40:12.674Z,80.00
2018-04-17T02:42:41.012Z,80.70
2018-04-17T02:45:09.457Z,80.70
2018-04-17T02:47:37.864Z,80.60
2018-04-17T02:50:15.855Z,80.70
2018-04-17T02:52:44.181Z,80.60
2018-04-17T02:55:12.593Z,80.50
2018-04-17T02:57:40.950Z,80.40
2018-04-17T03:00:09.380Z,80.60
2018-04-17T03:02:37.708Z,80.60
2018-04-17T03:05:06.816Z,80.90
2018-04-17T03:07:35.897Z,80.60
2018-04-17T03:10:04.204Z,80.60
2018-04-17T03:12:32.484Z,80.20
2018-04-17T03:15:00.770Z,80.30
2018-04-17T03:17:29.072Z,80.10
2018-04-17T03:19:57.380Z,80.10
2018-04-17T03:22:25.731Z,80.20
2018-04-17T03:24:54.820Z,80.60
2018-04-17T03:27:23.152Z,80.60
2018-04-17T03:29:52.217Z,81.70
2018-04-17T03:32:20.544Z,81.70
2018-04-17T03:34:49.697Z,82.60
2018-04-17T03:37:18.016Z,82.90
2018-04-17T03:39:46.381Z,82.30
2018-04-17T03:42:15.507Z,82.00
2018-04-17T03:44:43.808Z,82.00
2018-04-17T03:47:12.133Z,81.30
2018-04-17T03:49:41.176Z,81.10
2018-04-17T03:52:09.471Z,81.00
2018-04-17T03:54:37.793Z,81.10
2018-04-17T03:57:06.099Z,80.90
2018-04-17T03:59:34.372Z,81.20
2018-04-17T04:02:02.724Z,81.40
2018-04-17T04:04:31.806Z,81.80
2018-04-17T04:07:00.899Z,81.80
2018-04-17T04:09:29.956Z,81.60
2018-04-17T04:11:58.268Z,81.50
2018-04-17T04:14:26.556Z,81.50
2018-04-17T04:17:07.427Z,82.20
2018-04-17T04:19:48.747Z,82.60
2018-04-17T04:22:28.717Z,82.60
2018-04-17T04:25:21.525Z,82.30
2018-04-17T04:27:49.928Z,82.30
2018-04-17T04:30:18.310Z,81.90
2018-04-17T04:32:46.731Z,81.50
2018-04-17T04:35:15.861Z,81.70
2018-04-17T04:37:44.338Z,81.70
2018-04-17T04:40:12.677Z,82.00
2018-04-17T04:42:41.849Z,82.30
2018-04-17T04:47:44.769Z,82.00
2018-04-17T04:50:13.132Z,82.00
2018-04-17T04:52:41.448Z,81.80
2018-04-17T04:55:09.733Z,81.90
2018-04-17T04:57:38.075Z,82.20
2018-04-17T05:00:06.389Z,82.00
2018-04-17T05:02:35.532Z,81.20
2018-04-17T05:05:03.917Z,81.20
2018-04-17T05:07:32.321Z,81.20
2018-04-17T05:10:00.636Z,81.90
2018-04-17T05:12:28.994Z,81.90
2018-04-17T05:14:57.314Z,82.20
2018-04-17T05:17:25.666Z,82.40
2018-04-17T05:19:54.712Z,83.10
2018-04-17T05:22:23.031Z,83.10
2018-04-17T05:24:52.077Z,83.80
2018-04-17T05:27:20.425Z,83.70
2018-04-17T05:29:48.766Z,83.60
2018-04-17T05:32:17.915Z,83.60
2018-04-17T05:34:46.201Z,83.60
2018-04-17T05:37:14.538Z,83.40
2018-04-17T05:39:43.593Z,82.30
2018-04-17T05:42:11.904Z,82.30
2018-04-17T05:44:41.129Z,82.20
2018-04-17T05:47:09.807Z,82.20
2018-04-17T05:49:39.339Z,82.30
2018-04-17T06:39:22.783Z,82.60
2018-04-17T06:41:51.177Z,82.20
2018-04-17T06:44:19.485Z,82.40
2018-04-17T06:46:47.999Z,82.60
2018-04-17T06:49:16.708Z,82.50
2018-04-17T06:51:46.208Z,82.30
2018-04-17T06:54:14.961Z,82.30
2018-04-17T06:56:43.802Z,81.90
2018-04-17T06:59:12.788Z,81.80
2018-04-17T07:01:41.777Z,81.80
2018-04-17T07:04:10.553Z,81.60
2018-04-17T07:06:39.420Z,81.50
2018-04-17T07:30:21.526Z,80.20
2018-04-17T07:32:50.260Z,79.80
2018-04-17T07:35:19.212Z,79.60
2018-04-17T07:37:48.763Z,79.10
2018-04-17T07:40:17.611Z,79.10
2018-04-17T07:42:46.369Z,78.90
2018-04-17T07:45:15.145Z,78.60
2018-04-17T08:01:36.966Z,76.00
2018-04-17T08:04:05.278Z,76.80
2018-04-17T08:06:33.617Z,76.00
2018-04-17T08:09:02.660Z,75.80
2018-04-17T08:11:31.079Z,75.80
2018-04-17T08:14:00.170Z,75.20
2018-04-17T08:16:28.508Z,75.10
2018-04-17T08:18:56.797Z,74.80
2018-04-17T08:21:25.318Z,74.30
2018-04-17T08:23:53.728Z,74.00
2018-04-17T08:26:22.609Z,73.50
2018-04-17T08:28:51.097Z,73.20
2018-04-17T08:31:19.506Z,72.80
2018-04-17T08:33:48.645Z,72.00
2018-04-17T08:36:17.029Z,72.00
2018-04-17T08:38:45.430Z,71.20
2018-04-17T08:41:13.831Z,71.00
2018-04-17T08:43:42.336Z,70.30
2018-04-17T08:46:11.505Z,68.10
2018-04-17T08:48:39.860Z,68.10
2018-04-17T08:51:08.300Z,65.20
2018-04-17T08:53:36.953Z,64.60
2018-04-17T08:56:05.757Z,63.80
2018-04-17T08:58:34.588Z,64.30
2018-04-17T09:01:03.230Z,63.80
2018-04-17T09:03:31.718Z,64.70
2018-04-17T09:06:00.722Z,64.40
2018-04-17T09:08:30.689Z,63.20
2018-04-17T09:49:10.769Z,56.20
2018-04-17T09:51:43.097Z,52.70
2018-04-17T09:54:17.506Z,52.60
2018-04-17T10:05:56.381Z,54.10
2018-04-17T10:08:24.721Z,54.80
2018-04-17T10:10:53.749Z,53.40
2018-04-17T10:13:22.546Z,51.40
2018-04-17T10:15:51.385Z,51.70
2018-04-17T10:18:20.037Z,51.30
2018-04-17T10:20:49.187Z,50.90
2018-04-17T10:23:18.336Z,50.90
2018-04-17T10:25:46.753Z,50.90
2018-04-17T10:28:15.433Z,50.10
2018-04-17T10:30:47.282Z,50.20
2018-04-17T10:39:21.707Z,46.60
2018-04-17T10:41:50.190Z,45.70
2018-04-17T10:44:18.624Z,45.60
2018-04-17T10:46:47.800Z,43.40
2018-04-17T10:49:16.072Z,43.40
2018-04-17T10:51:44.420Z,44.90
2018-04-17T10:54:12.697Z,45.00
2018-04-17T10:56:41.043Z,45.10
2018-04-17T10:59:10.129Z,44.30
2018-04-17T11:01:38.408Z,44.30
2018-04-17T11:04:06.769Z,44.00
2018-04-17T11:06:35.868Z,45.40
2018-04-17T11:09:04.188Z,45.40
2018-04-17T11:11:32.524Z,45.70
2018-04-17T11:14:00.888Z,45.00
2018-04-17T11:16:30.024Z,47.00
2018-04-17T11:18:59.138Z,45.00
2018-04-17T11:21:27.458Z,44.90
2018-04-17T11:23:55.871Z,43.60
2018-04-17T11:26:24.168Z,44.60
2018-04-17T11:28:52.512Z,44.50
2018-04-17T11:31:20.812Z,43.20
2018-04-17T11:33:49.928Z,42.50
2018-04-17T11:36:18.229Z,42.60
2018-04-17T11:38:46.528Z,42.90
2018-04-17T11:41:14.829Z,42.40
2018-04-17T11:43:43.153Z,42.30
2018-04-17T11:46:11.451Z,41.80
2018-04-17T11:48:39.817Z,40.50
2018-04-17T11:51:08.060Z,41.90
2018-04-17T11:53:36.373Z,41.60
2018-04-17T11:56:04.660Z,40.40
2018-04-17T11:58:32.960Z,40.20
2018-04-17T12:01:01.244Z,41.10
2018-04-17T12:03:29.564Z,41.70
2018-04-17T12:05:57.870Z,40.20
2018-04-17T12:08:26.175Z,41.00
2018-04-17T12:10:54.469Z,41.70
2018-04-17T12:13:23.588Z,41.70
2018-04-17T12:15:51.876Z,41.70
2018-04-17T12:18:20.205Z,41.00
2018-04-17T12:20:48.509Z,41.30
2018-04-17T12:23:16.796Z,40.40
2018-04-17T12:25:45.169Z,41.10
2018-04-17T12:28:13.429Z,40.00
2018-04-17T12:30:41.753Z,40.90
2018-04-17T12:33:10.053Z,40.20
2018-04-17T12:35:38.351Z,39.80
2018-04-17T12:38:07.400Z,39.90
2018-04-17T12:40:35.780Z,39.70
2018-04-17T12:43:04.061Z,40.10
2018-04-17T12:45:32.364Z,39.60
2018-04-17T12:48:00.655Z,39.70
2018-04-17T12:50:29.763Z,38.90
2018-04-17T12:52:58.820Z,38.00
2018-04-17T12:55:27.127Z,37.90
2018-04-17T12:57:56.173Z,38.40
2018-04-17T13:00:24.499Z,38.40
2018-04-17T13:02:53.565Z,38.70
2018-04-17T13:05:21.881Z,38.70
2018-04-17T13:07:50.930Z,37.10
2018-04-17T13:10:19.298Z,37.10
2018-04-17T13:12:47.582Z,37.50
2018-04-17T13:15:15.940Z,37.90
2018-04-17T13:17:44.283Z,38.30
2018-04-17T13:20:13.419Z,36.70
2018-04-17T13:22:41.801Z,36.70
2018-04-17T13:25:10.239Z,37.60
2018-04-17T13:27:39.357Z,36.40
2018-04-17T13:30:07.709Z,36.40
2018-04-17T13:32:36.755Z,36.50
2018-04-17T13:35:05.060Z,36.50
2018-04-17T13:37:33.346Z,37.70
2018-04-17T13:40:01.671Z,36.10
2018-04-17T13:42:29.973Z,36.70
2018-04-17T13:44:58.313Z,35.50
2018-04-17T13:47:26.595Z,36.90
2018-04-17T13:49:54.891Z,35.70
2018-04-17T13:52:23.225Z,35.50
2018-04-17T13:54:51.501Z,35.30
2018-04-17T13:57:19.854Z,34.90
2018-04-17T13:59:48.130Z,35.60
2018-04-17T14:02:16.472Z,35.90
2018-04-17T14:04:44.769Z,35.60
2018-04-17T14:07:13.096Z,37.40
2018-04-17T14:09:42.157Z,35.70
2018-04-17T14:12:10.512Z,35.70
2018-04-17T14:14:38.787Z,35.40
2018-04-17T14:17:07.095Z,35.40
2018-04-17T14:19:35.395Z,34.80
2018-04-17T14:22:04.477Z,35.40
2018-04-17T14:24:33.562Z,35.00
2018-04-17T14:27:01.877Z,35.00
2018-04-17T14:29:30.931Z,35.20
2018-04-17T14:31:59.250Z,35.10
2018-04-17T14:34:27.553Z,34.90
2018-04-17T14:36:55.889Z,35.70
2018-04-17T14:39:24.965Z,34.70
2018-04-17T14:41:53.332Z,34.70
2018-04-17T14:44:21.610Z,35.20
2018-04-17T14:46:49.924Z,33.00
2018-04-17T14:49:19.092Z,34.10
2018-04-17T14:51:47.406Z,34.10
2018-04-17T14:54:16.455Z,33.50
2018-04-17T14:56:44.760Z,33.50
2018-04-17T14:59:13.052Z,34.70
2018-04-17T15:01:41.817Z,34.30
2018-04-17T15:04:10.121Z,33.60
2018-04-17T15:06:39.187Z,33.70
2018-04-17T15:09:07.520Z,33.60
2018-04-17T15:11:35.799Z,31.40
2018-04-17T15:14:04.118Z,31.70
2018-04-17T15:16:32.408Z,32.70
2018-04-17T15:19:00.738Z,32.50
2018-04-17T15:21:29.016Z,31.30
2018-04-17T15:23:57.311Z,31.90
2018-04-17T15:26:25.641Z,32.30
2018-04-17T15:28:54.704Z,31.80
2018-04-17T15:31:23.003Z,31.80
2018-04-17T15:33:52.078Z,30.10
2018-04-17T15:36:20.380Z,30.10
2018-04-17T15:38:48.712Z,30.30
2018-04-17T15:41:16.998Z,30.00
2018-04-17T15:43:45.324Z,29.70
2018-04-17T15:46:13.612Z,29.90
2018-04-17T15:48:41.920Z,30.00
2018-04-17T15:51:10.204Z,29.50
2018-04-17T15:53:38.507Z,30.60
2018-04-17T15:56:07.568Z,29.80
2018-04-17T15:58:35.885Z,29.80
2018-04-17T16:01:04.172Z,29.90
2018-04-17T16:03:33.290Z,29.30
2018-04-17T16:06:01.561Z,29.30
2018-04-17T16:08:29.899Z,29.70
2018-04-17T16:10:58.184Z,29.60
2018-04-17T16:13:26.503Z,28.90
2018-04-17T16:15:54.829Z,29.00
2018-04-17T16:18:23.929Z,29.20
2018-04-17T16:20:52.236Z,29.20
2018-04-17T16:23:21.323Z,29.10
2018-04-17T16:25:50.432Z,29.70
2018-04-17T16:28:18.768Z,29.70
2018-04-17T16:30:47.104Z,29.80
2018-04-17T16:33:15.408Z,29.70
2018-04-17T16:35:43.684Z,29.20
2018-04-17T16:38:12.028Z,29.70
2018-04-17T16:40:40.389Z,28.90
2018-04-17T16:43:09.536Z,29.00
2018-04-17T16:45:37.872Z,28.90
2018-04-17T16:48:06.248Z,28.80
2018-04-17T16:50:34.585Z,28.90
2018-04-17T16:53:02.950Z,29.90
2018-04-17T16:55:31.353Z,29.80
2018-04-17T16:57:59.710Z,28.50
2018-04-17T17:00:28.102Z,28.40
2018-04-17T17:02:56.520Z,29.30
2018-04-17T17:05:25.750Z,29.40
2018-04-17T17:07:54.916Z,29.90
2018-04-17T17:10:23.991Z,32.00
2018-04-17T17:12:52.277Z,32.00
2018-04-17T17:15:21.371Z,32.30
2018-04-17T17:17:50.489Z,32.60
2018-04-17T17:20:18.879Z,32.60
2018-04-17T17:22:47.220Z,34.50
2018-04-17T17:25:15.537Z,33.50
2018-04-17T17:27:43.811Z,34.40
2018-04-17T17:30:12.151Z,34.80
2018-04-17T17:32:40.445Z,37.20
2018-04-17T17:35:09.521Z,40.30
2018-04-17T17:37:37.809Z,40.30
2018-04-17T17:40:06.888Z,41.80
2018-04-17T17:42:35.177Z,41.80
2018-04-17T17:45:03.496Z,41.90
2018-04-17T17:47:31.792Z,42.90
2018-04-17T17:50:00.110Z,44.10
2018-04-17T17:52:28.417Z,44.20
2018-04-17T17:54:56.741Z,45.00
2018-04-17T17:57:25.071Z,45.60
2018-04-17T17:59:53.372Z,45.20
2018-04-17T18:02:21.659Z,45.00
2018-04-17T18:04:49.973Z,45.30
2018-04-17T18:07:18.304Z,45.40
2018-04-17T18:09:46.657Z,46.40
2018-04-17T18:12:15.002Z,46.60
2018-04-17T18:14:44.161Z,47.50
2018-04-17T18:17:12.598Z,47.50
2018-04-17T18:19:41.789Z,48.00
2018-04-17T18:22:10.071Z,48.00
2018-04-17T18:24:39.352Z,48.80
2018-04-17T18:27:07.642Z,48.80
2018-04-17T18:29:35.928Z,49.10
2018-04-17T18:32:04.294Z,49.70
2018-04-17T18:34:32.555Z,50.50
2018-04-17T18:37:00.881Z,51.10
2018-04-17T18:39:29.161Z,51.10
2018-04-17T18:41:57.517Z,50.90
2018-04-17T18:44:26.600Z,52.30
2018-04-17T18:46:54.937Z,52.30
2018-04-17T18:49:23.217Z,52.90
2018-04-17T18:51:51.556Z,53.60
2018-04-17T18:54:19.836Z,53.40
2018-04-17T18:56:48.152Z,53.70
2018-04-17T18:59:16.500Z,54.20
2018-04-17T19:01:44.856Z,54.20
2018-04-17T19:04:13.900Z,54.60
2018-04-17T19:06:42.254Z,54.60
2018-04-17T19:09:10.530Z,54.80
2018-04-17T19:11:38.837Z,54.80
2018-04-17T19:14:07.152Z,55.10
2018-04-17T19:16:35.494Z,55.60
2018-04-17T19:19:03.787Z,55.90
2018-04-17T19:21:32.100Z,56.50
2018-04-17T19:24:00.403Z,57.40
2018-04-17T19:26:28.772Z,58.00
2018-04-17T19:28:57.029Z,58.20
2018-04-17T19:31:26.157Z,58.40
2018-04-17T19:33:54.462Z,58.40
2018-04-17T19:36:22.830Z,58.10
2018-04-17T19:38:51.104Z,57.10
2018-04-17T19:41:19.425Z,57.70
2018-04-17T19:43:48.471Z,58.30
2018-04-17T19:46:16.785Z,58.30
2018-04-17T19:48:45.071Z,58.30
2018-04-17T19:51:14.161Z,58.30
2018-04-17T19:53:42.452Z,58.30
2018-04-17T19:56:11.524Z,59.00
2018-04-17T19:58:39.811Z,59.00
2018-04-17T20:01:08.136Z,59.30
2018-04-17T20:03:36.420Z,59.30
2018-04-17T20:06:04.728Z,59.70
2018-04-17T20:08:33.041Z,59.70
2018-04-17T20:11:02.116Z,60.20
2018-04-17T20:13:30.403Z,60.20
2018-04-17T20:15:59.480Z,61.00
2018-04-17T20:18:27.796Z,60.90
2018-04-17T20:20:56.072Z,61.40
2018-04-17T20:23:24.473Z,62.10
2018-04-17T20:25:52.749Z,62.20
2018-04-17T20:28:21.059Z,62.50
2018-04-17T20:30:49.340Z,62.40
2018-04-17T20:33:17.653Z,62.10
2018-04-17T20:35:46.692Z,63.40
2018-04-17T20:38:14.999Z,63.40
2018-04-17T20:40:43.312Z,63.40
2018-04-17T20:43:11.622Z,64.50
2018-04-17T20:45:39.943Z,63.60
2018-04-17T20:48:09.034Z,64.00
2018-04-17T20:50:38.095Z,64.30
2018-04-17T20:53:06.427Z,64.20
2018-04-17T20:55:35.518Z,64.40
2018-04-17T20:58:04.639Z,64.30
2018-04-17T21:00:32.982Z,64.30
2018-04-17T21:03:01.296Z,64.80
2018-04-17T21:05:29.576Z,66.00
2018-04-17T21:07:57.965Z,66.30
2018-04-17T21:10:26.247Z,65.80
2018-04-17T21:12:54.633Z,65.90
2018-04-17T21:15:22.916Z,66.20
2018-04-17T21:17:51.233Z,66.60
2018-04-17T21:20:20.277Z,66.90
2018-04-17T21:22:48.640Z,66.80
2018-04-17T21:25:16.915Z,66.90
2018-04-17T21:27:45.232Z,67.00
2018-04-17T21:30:13.542Z,66.90
2018-04-17T21:32:42.612Z,67.00
2018-04-17T21:35:11.681Z,67.10
2018-04-17T21:37:39.984Z,67.10
2018-04-17T21:40:08.312Z,67.80
2018-04-17T21:42:36.689Z,68.80
2018-04-17T21:45:04.963Z,68.80
2018-04-17T21:47:33.320Z,68.60
2018-04-17T21:50:02.413Z,68.20
2018-04-17T21:52:31.524Z,68.30
2018-04-17T21:54:59.862Z,68.20
2018-04-17T21:57:28.227Z,68.80
2018-04-17T21:59:56.560Z,69.30
2018-04-17T22:02:24.860Z,69.60
2018-04-17T22:04:53.170Z,69.80
2018-04-17T22:07:21.529Z,70.10
2018-04-17T22:09:49.815Z,70.80
2018-04-17T22:12:18.088Z,70.90
2018-04-17T22:14:46.407Z,71.00
2018-04-17T22:17:15.453Z,70.80
2018-04-17T22:19:43.887Z,70.80
2018-04-17T22:22:13.008Z,71.00
2018-04-17T22:24:41.417Z,71.80
2018-04-17T22:27:09.740Z,71.10
2018-04-17T22:29:38.852Z,70.90
2018-04-17T22:32:07.206Z,70.90
2018-04-17T22:34:36.389Z,71.50
2018-04-17T22:37:04.766Z,71.30
2018-04-17T22:39:33.108Z,71.30
2018-04-17T22:42:01.493Z,71.20
2018-04-17T22:44:29.836Z,71.30
2018-04-17T22:46:58.177Z,71.60
2018-04-17T22:49:26.612Z,71.70
2018-04-17T22:51:54.937Z,71.80
2018-04-17T22:54:23.301Z,72.30
2018-04-17T22:56:51.700Z,72.60
2018-04-17T22:59:20.146Z,72.70
2018-04-17T23:01:48.473Z,72.80
2018-04-17T23:04:17.620Z,73.30
2018-04-17T23:06:45.954Z,73.30
2018-04-17T23:09:15.019Z,73.00
2018-04-17T23:11:43.298Z,73.00
2018-04-17T23:14:11.627Z,73.10
2018-04-17T23:16:39.937Z,73.10
2018-04-17T23:19:08.252Z,73.20
2018-04-17T23:21:36.545Z,73.30
2018-04-17T23:24:04.886Z,73.50
2018-04-17T23:26:33.220Z,73.20
2018-04-17T23:29:01.571Z,73.30
2018-04-17T23:31:30.625Z,73.70
2018-04-17T23:33:58.968Z,73.70
2018-04-17T23:36:27.285Z,73.80
2018-04-17T23:38:55.633Z,74.90
2018-04-17T23:41:23.904Z,75.90
2018-04-17T23:43:52.292Z,76.20
2018-04-17T23:46:20.576Z,76.00
2018-04-17T23:48:48.892Z,76.30
2018-04-17T23:51:17.176Z,76.60
2018-04-17T23:53:45.524Z,76.50
2018-04-17T23:56:13.852Z,76.30
2018-04-17T23:58:42.221Z,76.90
